createdAt,value
2023-03-10T00:04:35.449Z,6.43
2023-03-10T00:07:03.368Z,6.30
2023-03-10T00:09:30.941Z,6.07
2023-03-10T00:11:58.773Z,5.85
2023-03-10T00:14:26.475Z,6.28
2023-03-10T00:16:54.760Z,5.95
2023-03-10T00:19:23.512Z,6.13
2023-03-10T00:21:51.909Z,6.45
2023-03-10T00:24:19.525Z,6.35
2023-03-10T00:26:51.510Z,6.32
2023-03-10T00:29:19.447Z,6.35
2023-03-10T00:31:48.784Z,6.50
2023-03-10T00:34:16.687Z,5.97
2023-03-10T00:36:44.958Z,6.55
2023-03-10T00:39:13.076Z,6.30
2023-03-10T00:41:41.232Z,6.05
2023-03-10T00:44:09.986Z,6.13
2023-03-10T00:46:39.338Z,5.97
2023-03-10T00:49:08.148Z,7.13
2023-03-10T00:51:36.367Z,5.95
2023-03-10T00:54:04.185Z,6.00
2023-03-10T00:56:32.085Z,5.97
2023-03-10T00:59:00.846Z,6.10
2023-03-10T01:01:33.301Z,6.40
2023-03-10T01:04:02.904Z,6.50
2023-03-10T01:06:32.101Z,5.97
2023-03-10T01:09:00.026Z,5.97
2023-03-10T01:11:30.001Z,5.30
2023-03-10T01:13:59.096Z,5.72
2023-03-10T01:16:28.024Z,5.90
2023-03-10T01:18:56.580Z,5.75
2023-03-10T01:21:26.122Z,6.35
2023-03-10T01:23:54.177Z,6.53
2023-03-10T01:26:25.374Z,6.15
2023-03-10T01:28:53.380Z,6.57
2023-03-10T01:31:21.493Z,6.60
2023-03-10T01:33:49.208Z,5.95
2023-03-10T01:36:23.030Z,6.55
2023-03-10T01:38:51.190Z,6.50
2023-03-10T01:41:19.251Z,6.15
2023-03-10T01:43:48.745Z,6.50
2023-03-10T01:46:35.629Z,7.00
2023-03-10T01:49:23.841Z,6.78
2023-03-10T01:51:54.915Z,6.15
2023-03-10T01:56:52.511Z,6.63
2023-03-10T01:59:21.169Z,7.40
2023-03-10T02:01:53.300Z,6.70
2023-03-10T02:04:44.999Z,6.97
2023-03-10T02:07:13.336Z,6.93
2023-03-10T02:09:44.577Z,7.70
2023-03-10T02:12:13.922Z,7.30
2023-03-10T02:14:42.076Z,8.80
2023-03-10T02:17:11.356Z,7.35
2023-03-10T02:19:55.535Z,7.30
2023-03-10T02:22:26.520Z,7.93
2023-03-10T02:24:54.442Z,7.20
2023-03-10T02:27:26.521Z,8.13
2023-03-10T02:29:59.850Z,7.13
2023-03-10T02:32:34.811Z,8.43
2023-03-10T02:35:02.712Z,9.13
2023-03-10T02:37:34.036Z,9.77
2023-03-10T02:40:02.621Z,8.73
2023-03-10T02:42:33.681Z,8.40
2023-03-10T02:45:02.119Z,9.18
2023-03-10T02:47:30.351Z,8.40
2023-03-10T02:49:57.995Z,8.43
2023-03-10T02:52:46.690Z,8.02
2023-03-10T02:55:18.808Z,8.50
2023-03-10T02:57:47.606Z,8.45
2023-03-10T03:00:15.985Z,8.52
2023-03-10T03:02:43.677Z,8.43
2023-03-10T03:05:13.305Z,8.13
2023-03-10T03:07:41.909Z,9.13
2023-03-10T03:10:10.358Z,8.73
2023-03-10T03:12:38.361Z,9.07
2023-03-10T03:15:06.588Z,8.38
2023-03-10T03:17:35.390Z,8.65
2023-03-10T03:20:11.918Z,9.30
2023-03-10T03:22:41.165Z,9.85
2023-03-10T03:25:10.049Z,10.27
2023-03-10T03:27:38.474Z,9.55
2023-03-10T03:30:09.708Z,10.18
2023-03-10T03:32:38.750Z,10.07
2023-03-10T03:35:11.113Z,9.73
2023-03-10T03:37:38.850Z,11.02
2023-03-10T03:40:16.472Z,12.20
2023-03-10T03:45:17.690Z,11.82
2023-03-10T03:47:47.494Z,11.45
2023-03-10T03:50:16.345Z,12.50
2023-03-10T03:52:45.446Z,12.57
2023-03-10T03:55:16.007Z,12.68
2023-03-10T03:57:45.234Z,12.10
2023-03-10T04:00:15.784Z,13.25
2023-03-10T04:02:47.533Z,13.82
2023-03-10T04:05:15.513Z,13.00
2023-03-10T04:07:44.041Z,13.25
2023-03-10T04:10:15.863Z,12.93
2023-03-10T04:12:43.651Z,13.20
2023-03-10T04:15:12.897Z,13.45
2023-03-10T04:17:41.196Z,14.20
2023-03-10T04:20:09.558Z,13.27
2023-03-10T04:22:41.994Z,13.52
2023-03-10T04:25:11.369Z,14.10
2023-03-10T04:27:39.256Z,13.90
2023-03-10T04:30:08.629Z,14.60
2023-03-10T04:32:39.137Z,15.70
2023-03-10T04:35:08.444Z,16.17
2023-03-10T04:37:36.509Z,15.45
2023-03-10T04:40:08.609Z,15.30
2023-03-10T04:42:37.500Z,15.30
2023-03-10T04:45:05.461Z,15.40
2023-03-10T04:47:33.392Z,15.77
2023-03-10T04:50:01.611Z,14.25
2023-03-10T04:52:32.243Z,15.30
2023-03-10T04:55:00.510Z,15.13
2023-03-10T04:57:28.228Z,15.52
2023-03-10T04:59:56.160Z,15.57
2023-03-10T05:02:28.480Z,17.25
2023-03-10T05:04:57.234Z,16.00
2023-03-10T05:07:25.149Z,16.38
2023-03-10T05:09:53.903Z,15.40
2023-03-10T05:12:25.041Z,16.20
2023-03-10T05:14:55.353Z,16.88
2023-03-10T05:17:23.329Z,15.57
2023-03-10T05:19:55.117Z,16.65
2023-03-10T05:22:23.880Z,17.13
2023-03-10T05:24:53.244Z,16.83
2023-03-10T05:27:22.792Z,15.57
2023-03-10T05:32:27.790Z,15.63
2023-03-10T05:34:56.562Z,16.13
2023-03-10T05:37:24.975Z,17.00
2023-03-10T05:39:53.615Z,16.55
2023-03-10T05:42:23.677Z,14.93
2023-03-10T05:44:52.703Z,15.82
2023-03-10T05:47:21.188Z,15.43
2023-03-10T05:49:49.250Z,14.38
2023-03-10T05:52:24.027Z,14.88
2023-03-10T05:54:55.767Z,14.80
2023-03-10T05:57:23.731Z,13.93
2023-03-10T05:59:52.577Z,15.20
2023-03-10T06:02:21.831Z,16.02
2023-03-10T06:04:49.744Z,15.60
2023-03-10T06:07:17.827Z,14.90
2023-03-10T06:09:45.999Z,14.00
2023-03-10T06:12:13.766Z,13.40
2023-03-10T06:14:41.359Z,11.90
2023-03-10T06:17:09.311Z,10.77
2023-03-10T06:19:37.260Z,10.15
2023-03-10T06:22:05.296Z,10.35
2023-03-10T06:24:33.945Z,9.45
2023-03-10T06:27:02.078Z,9.88
2023-03-10T06:29:29.940Z,9.77
2023-03-10T06:31:57.765Z,8.68
2023-03-10T06:34:25.495Z,10.30
2023-03-10T06:36:55.695Z,9.88
2023-03-10T06:39:26.648Z,10.20
2023-03-10T06:41:56.047Z,9.27
2023-03-10T06:44:23.805Z,10.15
2023-03-10T06:46:52.627Z,9.68
2023-03-10T06:49:21.359Z,10.02
2023-03-10T06:51:49.759Z,9.70
2023-03-10T06:54:17.677Z,10.25
2023-03-10T06:56:45.370Z,10.20
2023-03-10T06:59:13.281Z,9.63
2023-03-10T07:01:41.291Z,10.27
2023-03-10T07:04:09.151Z,10.40
2023-03-10T07:06:37.014Z,8.93
2023-03-10T07:09:05.809Z,9.48
2023-03-10T07:11:34.013Z,10.10
2023-03-10T07:14:02.491Z,9.40
2023-03-10T07:16:31.831Z,9.98
2023-03-10T07:18:59.619Z,10.02
2023-03-10T07:21:27.537Z,10.43
2023-03-10T07:23:58.333Z,10.13
2023-03-10T07:26:26.184Z,11.93
2023-03-10T07:28:54.615Z,12.77
2023-03-10T07:31:22.775Z,12.35
2023-03-10T07:33:51.138Z,12.73
2023-03-10T07:36:21.615Z,14.30
2023-03-10T07:38:49.426Z,14.80
2023-03-10T07:41:18.463Z,13.85
2023-03-10T07:43:46.507Z,14.43
2023-03-10T07:46:15.327Z,13.35
2023-03-10T07:48:43.365Z,12.55
2023-03-10T07:51:13.044Z,12.95
2023-03-10T07:53:40.947Z,11.55
2023-03-10T07:56:09.834Z,13.02
2023-03-10T07:58:38.055Z,12.27
2023-03-10T08:01:07.050Z,12.93
2023-03-10T08:03:34.820Z,11.70
2023-03-10T08:06:05.772Z,11.57
2023-03-10T08:08:33.513Z,10.70
2023-03-10T08:11:05.414Z,10.00
2023-03-10T08:13:34.067Z,11.52
2023-03-10T08:16:02.127Z,9.65
2023-03-10T08:18:30.602Z,10.00
2023-03-10T08:20:58.888Z,11.35
2023-03-10T08:23:27.116Z,10.32
2023-03-10T08:25:54.805Z,11.60
2023-03-10T08:28:23.117Z,13.18
2023-03-10T08:31:04.085Z,12.50
2023-03-10T08:33:34.074Z,13.75
2023-03-10T08:36:08.729Z,12.77
2023-03-10T08:38:39.894Z,13.35
2023-03-10T08:41:15.759Z,13.52
2023-03-10T08:43:44.986Z,12.38
2023-03-10T08:46:15.943Z,11.45
2023-03-10T08:48:43.819Z,10.93
2023-03-10T08:51:15.454Z,10.13
2023-03-10T08:53:43.955Z,9.73
2023-03-10T08:56:12.013Z,9.57
2023-03-10T08:58:39.691Z,10.13
2023-03-10T09:01:07.300Z,9.23
2023-03-10T09:03:39.797Z,9.70
2023-03-10T09:06:08.195Z,9.38
2023-03-10T09:08:36.035Z,9.00
2023-03-10T09:11:03.873Z,9.23
2023-03-10T09:13:31.625Z,9.75
2023-03-10T09:15:59.686Z,9.55
2023-03-10T09:18:27.438Z,9.50
2023-03-10T09:20:56.166Z,9.82
2023-03-10T09:23:24.241Z,9.05
2023-03-10T09:25:52.906Z,8.85
2023-03-10T09:28:22.946Z,9.52
2023-03-10T09:30:55.199Z,9.27
2023-03-10T09:33:23.536Z,9.35
2023-03-10T09:36:05.847Z,9.13
2023-03-10T09:38:34.817Z,9.27
2023-03-10T09:41:38.596Z,8.82
2023-03-10T09:44:07.814Z,8.85
2023-03-10T09:47:02.018Z,8.40
2023-03-10T09:49:52.064Z,8.65
2023-03-10T09:54:55.555Z,7.55
2023-03-10T09:57:24.356Z,8.85
2023-03-10T09:59:56.609Z,8.50
2023-03-10T10:02:31.953Z,8.93
2023-03-10T10:05:04.367Z,8.55
2023-03-10T10:07:40.606Z,8.32
2023-03-10T10:10:11.228Z,8.93
2023-03-10T10:15:17.655Z,8.38
2023-03-10T10:17:55.213Z,8.10
2023-03-10T10:20:29.555Z,9.45
2023-03-10T10:22:57.308Z,9.38
2023-03-10T10:25:26.409Z,9.07
2023-03-10T10:27:56.304Z,9.00
2023-03-10T10:30:40.589Z,9.02
2023-03-10T10:33:12.566Z,8.93
2023-03-10T10:35:42.232Z,8.60
2023-03-10T10:38:16.485Z,7.97
2023-03-10T10:40:59.901Z,9.35
2023-03-10T10:43:30.600Z,8.85
2023-03-10T10:46:04.860Z,9.45
2023-03-10T10:48:45.344Z,9.63
2023-03-10T10:51:27.305Z,10.10
2023-03-10T10:53:56.157Z,10.63
2023-03-10T10:56:24.756Z,10.68
2023-03-10T10:59:03.369Z,11.25
2023-03-10T11:01:52.529Z,11.25
2023-03-10T11:04:21.285Z,11.25
2023-03-10T11:06:49.458Z,13.27
2023-03-10T11:09:23.545Z,12.38
2023-03-10T11:11:54.767Z,12.52
2023-03-10T11:14:41.424Z,13.18
2023-03-10T11:17:29.261Z,13.50
2023-03-10T11:20:00.230Z,14.05
2023-03-10T11:22:34.493Z,13.95
2023-03-10T11:25:26.937Z,13.98
2023-03-10T11:28:10.625Z,14.57
2023-03-10T11:30:38.997Z,14.38
2023-03-10T11:33:09.997Z,14.40
2023-03-10T11:35:44.178Z,13.73
2023-03-10T11:38:15.001Z,14.90
2023-03-10T11:40:52.702Z,15.10
2023-03-10T11:43:29.602Z,13.85
2023-03-10T11:46:02.385Z,14.18
2023-03-10T11:48:33.152Z,15.88
2023-03-10T11:51:04.262Z,18.17
2023-03-10T11:53:46.514Z,16.92
2023-03-10T11:56:15.753Z,17.00
2023-03-10T11:58:53.513Z,15.05
2023-03-10T12:01:38.423Z,15.07
2023-03-10T12:04:17.450Z,14.57
2023-03-10T12:06:48.968Z,14.27
2023-03-10T12:09:19.252Z,13.50
2023-03-10T12:11:47.195Z,12.70
2023-03-10T12:14:24.545Z,11.45
2023-03-10T12:16:54.194Z,9.52
2023-03-10T12:19:22.910Z,8.60
2023-03-10T12:22:09.796Z,7.03
2023-03-10T12:24:47.864Z,5.13
2023-03-10T12:27:16.024Z,4.03
2023-03-10T12:29:47.326Z,3.47
2023-03-10T12:32:33.961Z,2.90
2023-03-10T12:35:21.577Z,3.10
2023-03-10T12:37:49.552Z,2.80
2023-03-10T12:40:36.717Z,3.28
2023-03-10T12:43:35.769Z,2.70
2023-03-10T12:46:04.036Z,2.60
2023-03-10T12:48:35.598Z,2.75
2023-03-10T12:51:07.579Z,2.60
2023-03-10T12:53:55.834Z,2.88
2023-03-10T12:56:34.388Z,2.50
2023-03-10T12:59:22.561Z,2.30
2023-03-10T13:01:55.999Z,2.17
2023-03-10T13:04:24.732Z,2.22
2023-03-10T13:07:07.273Z,2.60
2023-03-10T13:09:39.295Z,2.10
2023-03-10T13:12:13.441Z,2.28
2023-03-10T13:14:42.203Z,2.60
2023-03-10T13:17:23.583Z,2.05
2023-03-10T13:20:04.325Z,2.10
2023-03-10T13:22:32.838Z,2.03
2023-03-10T13:25:05.151Z,2.45
2023-03-10T13:27:38.733Z,1.98
2023-03-10T13:30:21.220Z,2.00
2023-03-10T13:33:03.185Z,1.80
2023-03-10T13:35:39.660Z,2.10
2023-03-10T13:38:40.223Z,2.28
2023-03-10T13:43:47.792Z,2.25
2023-03-10T13:46:34.919Z,2.47
2023-03-10T13:49:09.176Z,2.40
2023-03-10T13:51:38.976Z,2.30
2023-03-10T13:54:26.094Z,2.55
2023-03-10T13:57:09.202Z,2.42
2023-03-10T13:59:40.663Z,2.05
2023-03-10T14:02:27.425Z,2.17
2023-03-10T14:04:56.301Z,2.10
2023-03-10T14:07:28.502Z,2.60
2023-03-10T14:10:06.501Z,2.85
2023-03-10T14:13:14.827Z,2.25
2023-03-10T14:15:54.636Z,2.72
2023-03-10T14:18:28.271Z,2.85
2023-03-10T14:20:57.516Z,2.50
2023-03-10T14:23:27.901Z,2.63
2023-03-10T14:25:56.780Z,2.53
2023-03-10T14:28:28.828Z,2.95
2023-03-10T14:30:56.799Z,3.20
2023-03-10T14:33:25.282Z,3.58
2023-03-10T14:35:53.139Z,3.10
2023-03-10T14:38:23.539Z,3.42
2023-03-10T14:43:21.057Z,2.88
2023-03-10T14:45:51.744Z,2.83
2023-03-10T14:48:21.644Z,2.63
2023-03-10T14:50:50.802Z,2.47
2023-03-10T14:53:20.043Z,2.40
2023-03-10T14:55:51.784Z,2.42
2023-03-10T14:58:23.428Z,2.55
2023-03-10T15:00:51.969Z,2.25
2023-03-10T15:03:23.713Z,2.90
2023-03-10T15:05:53.751Z,2.45
2023-03-10T15:08:25.585Z,2.55
2023-03-10T15:10:54.136Z,2.60
2023-03-10T15:13:25.840Z,2.75
2023-03-10T15:15:54.065Z,3.20
2023-03-10T15:18:23.708Z,3.60
2023-03-10T15:20:52.880Z,3.60
2023-03-10T15:23:22.674Z,3.90
2023-03-10T15:25:51.246Z,3.97
2023-03-10T15:28:19.217Z,4.60
2023-03-10T15:30:47.248Z,4.40
2023-03-10T15:33:15.743Z,4.32
2023-03-10T15:35:44.035Z,5.13
2023-03-10T15:38:14.222Z,4.50
2023-03-10T15:40:42.420Z,5.30
2023-03-10T15:43:10.422Z,5.90
2023-03-10T15:45:40.977Z,5.75
2023-03-10T15:48:09.026Z,6.60
2023-03-10T15:50:42.062Z,6.70
2023-03-10T15:53:09.798Z,6.07
2023-03-10T15:55:41.068Z,5.50
2023-03-10T15:58:09.665Z,4.85
2023-03-10T16:00:38.369Z,4.15
2023-03-10T16:03:06.249Z,3.75
2023-03-10T16:05:35.647Z,3.17
2023-03-10T16:08:06.304Z,2.83
2023-03-10T16:10:36.028Z,2.40
2023-03-10T16:13:04.528Z,2.22
2023-03-10T16:15:32.363Z,2.10
2023-03-10T16:18:00.089Z,2.88
2023-03-10T16:20:29.130Z,3.58
2023-03-10T16:22:57.860Z,3.05
2023-03-10T16:25:25.573Z,3.80
2023-03-10T16:27:53.815Z,3.80
2023-03-10T16:30:22.650Z,3.10
2023-03-10T16:32:54.228Z,3.25
2023-03-10T16:35:22.797Z,3.50
2023-03-10T16:37:51.030Z,3.30
2023-03-10T16:40:18.920Z,4.22
2023-03-10T16:42:46.675Z,3.67
2023-03-10T16:45:14.641Z,4.05
2023-03-10T16:47:44.289Z,3.95
2023-03-10T16:50:14.442Z,4.10
2023-03-10T16:52:42.832Z,3.80
2023-03-10T16:55:17.470Z,4.13
2023-03-10T16:57:45.972Z,4.47
2023-03-10T17:00:14.662Z,3.90
2023-03-10T17:02:42.298Z,4.80
2023-03-10T17:05:10.409Z,4.57
2023-03-10T17:07:46.449Z,4.82
2023-03-10T17:10:22.548Z,4.85
2023-03-10T17:12:53.002Z,5.75
2023-03-10T17:15:22.611Z,5.18
2023-03-10T17:17:53.464Z,5.60
2023-03-10T17:20:23.443Z,5.82
2023-03-10T17:22:51.079Z,5.18
2023-03-10T17:25:21.595Z,5.30
2023-03-10T17:27:51.573Z,5.47
2023-03-10T17:30:23.742Z,5.85
2023-03-10T17:32:55.763Z,5.53
2023-03-10T17:35:23.761Z,4.85
2023-03-10T17:37:54.240Z,4.03
2023-03-10T17:40:26.746Z,3.33
2023-03-10T17:42:54.348Z,3.40
2023-03-10T17:45:22.750Z,3.00
2023-03-10T17:47:54.563Z,2.28
2023-03-10T17:50:23.908Z,2.22
2023-03-10T17:52:52.507Z,1.85
2023-03-10T17:55:21.202Z,1.60
2023-03-10T17:57:51.156Z,1.20
2023-03-10T18:00:19.833Z,0.95
2023-03-10T18:02:47.900Z,1.02
2023-03-10T18:05:15.894Z,1.00
2023-03-10T18:07:44.169Z,1.00
2023-03-10T18:10:12.871Z,1.00
2023-03-10T18:12:40.930Z,0.90
2023-03-10T18:15:09.435Z,1.50
2023-03-10T18:17:37.414Z,1.60
2023-03-10T18:20:07.663Z,1.30
2023-03-10T18:22:35.378Z,1.10
2023-03-10T18:25:03.662Z,1.05
2023-03-10T18:27:34.026Z,1.20
2023-03-10T18:32:30.271Z,0.98
2023-03-10T18:34:59.906Z,1.15
2023-03-10T18:37:33.512Z,1.00
2023-03-10T18:40:01.872Z,1.10
2023-03-10T18:42:29.885Z,1.23
2023-03-10T18:45:00.480Z,1.50
2023-03-10T18:47:28.251Z,1.20
2023-03-10T18:49:56.384Z,1.27
2023-03-10T18:52:24.392Z,1.15
2023-03-10T18:54:53.946Z,1.13
2023-03-10T18:57:22.309Z,1.17
2023-03-10T18:59:52.657Z,1.35
2023-03-10T19:02:21.118Z,1.70
2023-03-10T19:04:49.982Z,1.98
2023-03-10T19:07:22.833Z,1.60
2023-03-10T19:09:54.409Z,2.85
2023-03-10T19:12:25.349Z,1.80
2023-03-10T19:14:54.733Z,1.60
2023-03-10T19:17:26.797Z,2.00
2023-03-10T19:19:56.214Z,1.60
2023-03-10T19:22:25.487Z,2.13
2023-03-10T19:24:54.380Z,2.30
2023-03-10T19:27:25.639Z,2.30
2023-03-10T19:29:54.986Z,2.90
2023-03-10T19:32:27.195Z,3.42
2023-03-10T19:34:56.120Z,4.03
2023-03-10T19:37:23.847Z,4.88
2023-03-10T19:39:52.547Z,5.18
2023-03-10T19:42:24.682Z,4.97
2023-03-10T19:44:53.384Z,4.70
2023-03-10T19:47:22.219Z,5.07
2023-03-10T19:49:49.939Z,4.13
2023-03-10T19:52:18.795Z,3.50
2023-03-10T19:54:47.694Z,3.42
2023-03-10T19:57:16.415Z,3.00
2023-03-10T19:59:44.314Z,2.83
2023-03-10T20:02:14.799Z,2.70
2023-03-10T20:07:10.459Z,2.90
2023-03-10T20:09:38.204Z,3.33
2023-03-10T20:12:06.092Z,3.10
2023-03-10T20:14:36.820Z,3.47
2023-03-10T20:17:04.587Z,2.63
2023-03-10T20:19:32.647Z,2.75
2023-03-10T20:22:00.379Z,2.78
2023-03-10T20:24:28.124Z,2.30
2023-03-10T20:26:58.510Z,4.35
2023-03-10T20:31:55.444Z,2.10
2023-03-10T20:34:26.413Z,1.85
2023-03-10T20:36:54.445Z,2.67
2023-03-10T20:39:22.596Z,1.83
2023-03-10T20:41:54.637Z,1.98
2023-03-10T20:44:26.130Z,2.42
2023-03-10T20:46:54.204Z,2.58
2023-03-10T20:49:25.518Z,1.63
2023-03-10T20:51:54.043Z,1.73
2023-03-10T20:54:22.492Z,2.22
2023-03-10T20:56:51.022Z,1.77
2023-03-10T20:59:19.616Z,1.60
2023-03-10T21:01:47.827Z,2.00
2023-03-10T21:04:16.206Z,1.58
2023-03-10T21:06:44.122Z,1.95
2023-03-10T21:09:12.610Z,1.80
2023-03-10T21:11:41.539Z,1.48
2023-03-10T21:14:09.758Z,2.17
2023-03-10T21:16:39.834Z,1.88
2023-03-10T21:21:36.696Z,1.85
2023-03-10T21:24:05.621Z,1.83
2023-03-10T21:26:33.724Z,1.52
2023-03-10T21:29:04.492Z,2.17
2023-03-10T21:34:00.311Z,1.75
2023-03-10T21:36:28.467Z,1.88
2023-03-10T21:38:56.768Z,2.22
2023-03-10T21:41:25.918Z,1.80
2023-03-10T21:43:54.672Z,1.80
2023-03-10T21:46:27.606Z,2.65
2023-03-10T21:48:55.975Z,2.17
2023-03-10T21:51:25.733Z,1.98
2023-03-10T21:53:55.142Z,2.38
2023-03-10T21:56:26.432Z,2.00
2023-03-10T21:58:54.333Z,2.00
2023-03-10T22:01:23.025Z,2.30
2023-03-10T22:03:53.406Z,1.98
2023-03-10T22:06:24.605Z,2.42
2023-03-10T22:08:52.866Z,2.47
2023-03-10T22:11:23.735Z,2.40
2023-03-10T22:13:54.927Z,2.20
2023-03-10T22:16:27.379Z,1.75
2023-03-10T22:18:55.852Z,2.30
2023-03-10T22:21:23.928Z,2.08
2023-03-10T22:23:52.604Z,2.22
2023-03-10T22:26:23.141Z,2.35
2023-03-10T22:28:52.816Z,2.20
2023-03-10T22:31:22.838Z,1.90
2023-03-10T22:33:51.306Z,2.47
2023-03-10T22:36:19.319Z,2.30
2023-03-10T22:38:47.526Z,1.98
2023-03-10T22:41:15.805Z,2.13
2023-03-10T22:43:47.045Z,2.25
2023-03-10T22:48:46.359Z,2.22
2023-03-10T22:51:15.852Z,2.70
2023-03-10T22:53:47.731Z,1.83
2023-03-10T22:56:16.411Z,2.15
2023-03-10T22:58:44.858Z,1.80
2023-03-10T23:01:12.517Z,1.95
2023-03-10T23:03:41.749Z,2.33
2023-03-10T23:06:09.418Z,2.05
2023-03-10T23:08:37.913Z,1.98
2023-03-10T23:11:09.770Z,2.20
2023-03-10T23:13:38.214Z,1.80
2023-03-10T23:16:06.857Z,1.35
2023-03-10T23:18:36.305Z,3.60
2023-03-10T23:21:05.149Z,1.77
2023-03-10T23:23:33.440Z,2.03
2023-03-10T23:26:03.323Z,1.60
2023-03-10T23:28:32.412Z,1.90
2023-03-10T23:31:01.138Z,2.58
2023-03-10T23:33:29.170Z,1.50
2023-03-10T23:35:57.267Z,2.30
2023-03-10T23:38:26.015Z,1.65
2023-03-10T23:40:55.517Z,1.45
2023-03-10T23:43:23.626Z,1.63
2023-03-10T23:45:52.505Z,2.38
2023-03-10T23:48:25.643Z,2.17
2023-03-10T23:50:54.500Z,1.75
2023-03-10T23:53:22.694Z,2.08
2023-03-10T23:55:57.215Z,1.70
2023-03-10T23:58:25.049Z,1.92
